Henrique Viana

Scout - Corinthians
23 Apr 2028
Sonntag
Verarbeitung

Persönlichkeit

Anpassungsfähigkeit (13) Ehrgeiz (6) Kontroverse (1) Loyalität (5) Druck (16) Professionalität (14) Fairness (16) Temperament (2)

Profil

Trainerstil Demokratisch
Lizenz Kontinentale C
Entschlossenheit 15
Menschenführung 12
Motivation 8
Disziplin 6
Arbeitszufriedenheit
100%
Ermüdung
0%
Rolle Scout
Gehalt 47.4K p/W
Vertrag 14.03.2030

Leistung

Verhalten Gut
Trainingseffektivität
52%
Spielerentwicklung
30%
Verletzungsprävention
30%
Taktische Umsetzung
40%

Letzte Ereignisse

Nahm an einer Scouting-Besprechung teil jetzt
Nahm an einer Scouting-Besprechung teil 7T her
Nahm an einer Scouting-Besprechung teil 7T her
Empfahl ein Transferziel 7T her
Nahm an einer Scouting-Besprechung teil 14T her
Nahm an einer Scouting-Besprechung teil 14T her
Empfahl ein Transferziel 14T her
Empfahl ein Transferziel 21T her

Aktuell beobachtet

93
Spieler Verein Status Fähigkeit Vertrauen Beobachtet Zuletzt beobachtet Letzte Stimme
Gabriel Pec Cruzeiro Verloren 137 / 128 62% 1 07.12.2027 -
Lima Fluminense Aktiv 134 / 134 62% 1 02.12.2027 Befürworten
Martín Zubimendi Arsenal Aktiv 170 / 160 40% 1 30.11.2027 -
Luciano Juba Bahia Aktiv 143 / 137 40% 1 30.11.2027 -
Taty Castellanos West Ham United Aktiv 158 / 134 40% 2 30.05.2027 -
Federico Chiesa Liverpool Aktiv 154 / 154 40% 2 29.05.2027 -
Christian Pulisic AC Milan Aktiv 171 / 162 40% 1 29.05.2027 -
Thiago Brentford Aktiv 133 / 154 40% 3 27.05.2027 -
Emanuel Emegha Chelsea Aktiv 129 / 146 40% 2 27.05.2027 -
Joe Gelhardt Hull City Aktiv 136 / 139 40% 2 26.05.2027 -
Gabriel Martinelli Arsenal Aktiv 150 / 161 40% 2 23.05.2027 -
Gonzalo Fulham Aktiv 153 / 144 40% 1 23.05.2027 -
Mohamed-Ali Cho Hull City Aktiv 152 / 124 40% 3 22.05.2027 -
Assane Diao Como Aktiv 139 / 161 40% 3 22.05.2027 -
Manu Koné AS Roma Aktiv 160 / 166 40% 3 19.05.2027 -
Kai Havertz Arsenal Aktiv 170 / 167 40% 2 17.05.2027 -
Ismaïla Sarr Crystal Palace Aktiv 164 / 158 40% 3 16.05.2027 -
Nicolas Jackson Aston Villa Aktiv 153 / 150 40% 5 15.05.2027 -
Isaiah Jones Luton Town Aktiv 115 / 113 40% 1 14.05.2027 -
Hugo Ekitiké Liverpool Aktiv 177 / 161 40% 3 13.05.2027 -
Matheus Cunha Manchester United Aktiv 169 / 151 40% 2 13.05.2027 -
Morgan Gibbs-White Nottingham Forest Aktiv 157 / 165 40% 3 12.05.2027 -
Kevin Fulham Aktiv 135 / 154 40% 1 12.05.2027 -
Derensili Sanches Fernandes Huddersfield Town Aktiv 140 / 121 40% 3 11.05.2027 -
Marcus Rashford Manchester United Aktiv 150 / 164 40% 3 10.05.2027 -
Dominic Solanke Tottenham Aktiv 161 / 153 40% 1 10.05.2027 -
Iliman N'Diaye Everton Aktiv 145 / 146 40% 2 09.05.2027 -
Noni Madueke Arsenal Aktiv 166 / 155 40% 1 09.05.2027 -
Xavi Simons Tottenham Aktiv 172 / 153 40% 2 07.05.2027 -
Rodrigo Muniz Fulham Aktiv 132 / 136 40% 1 28.04.2027 -
Brooke Norton-Cuffy Hull City Aktiv 123 / 142 40% 2 13.04.2027 -
Jackson Muleka Konyaspor Aktiv 130 / 129 40% 2 13.04.2027 -
João Félix Dinamo Moscow Aktiv 140 / 146 40% 2 12.04.2027 -
Jason Knight Bristol City Aktiv 127 / 129 40% 2 11.04.2027 -
Steven Bergwijn Al-Ittihad Aktiv 156 / 156 40% 3 10.04.2027 -
Andrea Pinamonti Lazio Aktiv 147 / 131 40% 1 02.04.2027 -
Ilyas Ansah Hull City Aktiv 136 / 130 40% 1 01.04.2027 -
Oli McBurnie Hull City Aktiv 155 / 122 40% 1 29.03.2027 -
Gianluca Prestianni Benfica Aktiv 137 / 128 40% 2 27.03.2027 -
Julián Quiñones Al-Qadisiyah Aktiv 166 / 148 40% 2 25.03.2027 -
Che Adams Torino Aktiv 131 / 149 40% 1 24.03.2027 -
Lorenzo Colombo Genoa Aktiv 154 / 132 40% 1 21.03.2027 -
Enzo Barrenechea Benfica Aktiv 150 / 150 40% 5 20.03.2027 -
Rafik Guitane Estoril Praia Aktiv 117 / 126 40% 2 20.03.2027 -
Ricardo Horta Braga Aktiv 150 / 159 40% 2 18.03.2027 -
Santi García Gil Vicente Aktiv 134 / 135 40% 1 14.03.2027 -
Matheuzinho Vitória Aktiv 135 / 124 51% 1 01.12.2026 -
Sorriso Famalicao Aktiv 136 / 135 40% 4 27.11.2026 -
Zé Leite Moreirense Aktiv 106 / 130 40% 1 26.11.2026 -
Henrique Araújo Casa Pia Aktiv 114 / 119 40% 2 25.11.2026 -
Tamble Monteiro Rio Ave Aktiv 115 / 126 40% 3 23.11.2026 -
Samuel Lino Flamengo Auf Shortlist 145 / 147 40% 1 21.11.2026 Mehr Infos nötig
Jorge Aguirre Torreense Aktiv 110 / 103 40% 1 19.11.2026 -
Korede Osundina Casa Pia Aktiv 127 / 123 40% 1 19.11.2026 -
Pau Víctor Braga Aktiv 123 / 131 40% 1 18.11.2026 -
William Gomes Porto Aktiv 144 / 151 40% 1 16.11.2026 -
Alfonso Trezza Arouca Aktiv 121 / 136 40% 2 13.11.2026 -
Isidro Pitta Bragantino Aktiv 135 / 118 40% 1 13.11.2026 -
Toni Tamarit Alverca Aktiv 114 / 131 40% 1 11.11.2026 -
Jens Petter Hauge Bodo/Glimt Aktiv 151 / 143 40% 2 07.11.2026 -
Yoane Wissa Newcastle United Aktiv 126 / 150 40% 1 07.11.2026 -
Brais Méndez RC Lens Aktiv 160 / 148 40% 1 05.11.2026 -
Samuel Dahl Benfica Aktiv 135 / 134 40% 1 05.11.2026 -
Gustavo Silva Vitoria Guimaraes Aktiv 118 / 113 40% 2 04.11.2026 -
Leon Goretzka Aston Villa Aktiv 174 / 149 40% 1 01.11.2026 -
Vinícius Lopes Santa Clara Aktiv 101 / 124 40% 2 28.10.2026 -
Negueba Mirassol Aktiv 115 / 124 40% 1 26.10.2026 Mehr Infos nötig
Gérson Cruzeiro Verloren 130 / 146 40% 2 18.10.2026 -
Wessam Abou Ali Columbus Crew Aktiv 132 / 141 40% 2 13.10.2026 -
Fredrik Aursnes Benfica Aktiv 142 / 162 40% 1 11.10.2026 -
Jorge Meireles AVS Aktiv 114 / 119 40% 1 10.10.2026 -
Yanis Begraoui Estoril Praia Aktiv 133 / 135 40% 1 08.10.2026 -
Figueiredo Alverca Aktiv 136 / 133 40% 2 07.10.2026 -
Kévin Denkey FC Cincinnati Aktiv 125 / 114 40% 1 07.10.2026 -
Martín Ojeda Orlando City Aktiv 116 / 124 40% 1 05.10.2026 -
Tyrese Campbell Sheffield United Aktiv 135 / 111 40% 1 05.10.2026 -
Gabriel Silva Braga Aktiv 130 / 142 40% 1 29.09.2026 -
Ianis Stoica Estrela da Amadora Aktiv 121 / 102 40% 1 26.09.2026 -
Ángel Correa River Plate Aktiv 131 / 142 40% 3 25.09.2026 -
Talles Magno New York City Aktiv 113 / 145 40% 1 24.09.2026 -
Roberto Fernández Braga Aktiv 129 / 152 40% 1 24.09.2026 -
Alejandro Zendejas Club America Aktiv 147 / 141 40% 1 20.09.2026 -
Marcel Ruiz Crystal Palace Aktiv 129 / 147 40% 1 18.09.2026 -
Ramiro Ruiz Rodríguez Atlético Tucumán Aktiv 123 / 122 40% 1 16.09.2026 -
Andreas Schjelderup Benfica Aktiv 137 / 144 40% 2 11.09.2026 -
Lewis Cook Bournemouth Aktiv 162 / 140 40% 1 10.09.2026 -
Arthur Flamengo Aktiv 142 / 137 40% 1 09.09.2026 -
Cheikh Sabaly Vancouver Whitecaps Aktiv 117 / 117 40% 1 07.09.2026 -
Heorhii Sudakov Benfica Aktiv 123 / 138 40% 1 01.09.2026 -
Victor Froholdt Porto Verloren 167 / 142 40% 2 22.08.2026 -
Hwang In-Beom Porto Aktiv 157 / 149 40% 1 20.08.2026 -
Diogo Dalot Manchester United Aktiv 130 / 147 40% 1 19.08.2026 -
Zeno Debast Sporting CP Aktiv 119 / 143 40% 1 01.08.2026 -